createdAt,value
2023-03-12T00:00:49.641Z,-1.69
2023-03-12T00:03:18.243Z,-1.93
2023-03-12T00:05:49.700Z,-2.09
2023-03-12T00:08:17.697Z,-2.18
2023-03-12T00:10:46.007Z,-2.25
2023-03-12T00:13:14.025Z,-2.40
2023-03-12T00:15:43.682Z,-2.35
2023-03-12T00:18:13.670Z,-2.61
2023-03-12T00:21:10.736Z,-2.65
2023-03-12T00:23:39.750Z,-2.90
2023-03-12T00:26:10.071Z,-2.86
2023-03-12T00:29:15.926Z,-2.66
2023-03-12T00:31:45.481Z,-3.06
2023-03-12T00:34:32.925Z,-2.92
2023-03-12T00:37:04.588Z,-2.99
2023-03-12T00:39:33.585Z,-3.22
2023-03-12T00:42:01.735Z,-3.04
2023-03-12T00:44:37.640Z,-2.23
2023-03-12T00:47:07.628Z,-2.24
2023-03-12T00:49:37.765Z,-2.40
2023-03-12T00:52:07.659Z,-2.45
2023-03-12T00:54:36.892Z,-2.45
2023-03-12T00:57:05.311Z,-2.68
2023-03-12T00:59:33.718Z,-2.74
2023-03-12T01:02:04.032Z,-2.60
2023-03-12T01:04:33.330Z,-3.06
2023-03-12T01:07:01.274Z,-2.98
2023-03-12T01:09:29.356Z,-3.31
2023-03-12T01:11:57.391Z,-3.34
2023-03-12T01:14:25.619Z,-3.23
2023-03-12T01:16:53.630Z,-3.16
2023-03-12T01:19:21.932Z,-3.33
2023-03-12T01:21:54.120Z,-2.83
2023-03-12T01:24:22.178Z,-2.93
2023-03-12T01:26:50.138Z,-2.87
2023-03-12T01:29:18.461Z,-2.88
2023-03-12T01:31:46.544Z,-2.85
2023-03-12T01:34:14.989Z,-2.84
2023-03-12T01:36:45.137Z,-2.84
2023-03-12T01:39:16.353Z,-2.78
2023-03-12T01:41:44.629Z,-2.57
2023-03-12T01:44:15.373Z,-2.80
2023-03-12T01:46:44.455Z,-2.65
2023-03-12T01:49:15.755Z,-2.59
2023-03-12T01:51:48.708Z,-2.56
2023-03-12T01:54:23.146Z,-2.31
2023-03-12T01:56:51.827Z,-2.26
2023-03-12T01:59:25.852Z,-2.05
2023-03-12T02:01:54.932Z,-1.83
2023-03-12T02:04:26.066Z,-1.73
2023-03-12T02:07:01.285Z,-1.56
2023-03-12T02:09:32.124Z,-1.65
2023-03-12T02:12:00.172Z,-1.23
2023-03-12T02:14:28.577Z,-1.10
2023-03-12T02:16:57.336Z,-0.98
2023-03-12T02:19:33.812Z,-1.02
2023-03-12T02:22:03.895Z,-1.17
2023-03-12T02:24:40.033Z,-1.35
2023-03-12T02:27:12.150Z,-1.26
2023-03-12T02:29:43.746Z,-1.06
2023-03-12T02:32:18.812Z,-1.16
2023-03-12T02:34:49.152Z,-1.07
2023-03-12T02:37:17.664Z,-1.17
2023-03-12T02:39:52.330Z,-1.11
2023-03-12T02:42:22.960Z,-1.16
2023-03-12T02:44:52.937Z,-1.14
2023-03-12T02:47:22.047Z,-1.22
2023-03-12T02:49:51.417Z,-0.88
2023-03-12T02:52:20.609Z,-0.98
2023-03-12T02:54:50.776Z,-1.19
2023-03-12T02:57:18.791Z,-0.96
2023-03-12T02:59:48.779Z,-1.14
2023-03-12T03:02:17.799Z,-1.08
2023-03-12T03:04:47.562Z,-1.03
2023-03-12T03:07:15.618Z,-1.06
2023-03-12T03:09:44.922Z,-1.04
2023-03-12T03:12:15.487Z,-0.97
2023-03-12T03:14:43.869Z,-1.00
2023-03-12T03:17:18.464Z,-0.93
2023-03-12T03:19:50.915Z,-1.06
2023-03-12T03:22:26.396Z,-1.07
2023-03-12T03:25:03.630Z,-0.97
2023-03-12T03:27:34.420Z,-0.86
2023-03-12T03:30:02.893Z,-0.89
2023-03-12T03:32:57.129Z,-0.84
2023-03-12T03:35:36.720Z,-0.87
2023-03-12T03:38:28.150Z,-0.84
2023-03-12T03:41:23.009Z,-0.89
2023-03-12T03:43:52.100Z,-1.02
2023-03-12T03:46:20.550Z,-0.92
2023-03-12T03:48:50.931Z,-0.86
2023-03-12T03:51:20.603Z,-0.78
2023-03-12T03:53:48.801Z,-0.92
2023-03-12T03:56:18.924Z,-0.84
2023-03-12T03:58:50.440Z,-0.93
2023-03-12T04:01:20.290Z,-0.69
2023-03-12T04:03:48.889Z,-0.79
2023-03-12T04:06:20.276Z,-0.58
2023-03-12T04:08:50.213Z,-0.77
2023-03-12T04:11:22.463Z,-0.57
2023-03-12T04:13:52.150Z,-0.76
2023-03-12T04:16:21.539Z,-0.49
2023-03-12T04:18:50.802Z,-0.55
2023-03-12T04:21:25.799Z,-0.57
2023-03-12T04:23:53.886Z,-0.57
2023-03-12T04:26:22.877Z,-0.53
2023-03-12T04:28:52.010Z,-0.63
2023-03-12T04:31:21.170Z,-0.50
2023-03-12T04:33:50.011Z,-0.81
2023-03-12T04:36:20.327Z,-0.73
2023-03-12T04:38:54.679Z,-0.62
2023-03-12T04:41:29.264Z,-0.58
2023-03-12T04:43:57.310Z,-0.60
2023-03-12T04:46:25.644Z,-0.47
2023-03-12T04:48:54.051Z,-0.42
2023-03-12T04:51:22.358Z,-0.55
2023-03-12T04:53:53.252Z,-0.46
2023-03-12T04:56:26.328Z,-0.26
2023-03-12T04:58:54.781Z,-0.20
2023-03-12T05:01:27.759Z,-0.23
2023-03-12T05:03:56.305Z,-0.18
2023-03-12T05:06:26.662Z,-0.07
2023-03-12T05:08:56.580Z,-0.31
2023-03-12T05:11:32.052Z,-0.12
2023-03-12T05:14:02.938Z,-0.17
2023-03-12T05:16:31.755Z,-0.23
2023-03-12T05:19:00.058Z,-0.28
2023-03-12T05:21:31.500Z,-0.10
2023-03-12T05:24:02.000Z,-0.03
2023-03-12T05:26:35.079Z,0.00
2023-03-12T05:29:04.421Z,0.09
2023-03-12T05:31:37.893Z,0.20
2023-03-12T05:34:07.690Z,0.39
2023-03-12T05:36:41.515Z,0.31
2023-03-12T05:39:10.597Z,0.17
2023-03-12T05:41:42.559Z,0.16
2023-03-12T05:44:13.760Z,0.19
2023-03-12T05:46:42.005Z,0.15
2023-03-12T05:49:11.503Z,0.22
2023-03-12T05:51:44.774Z,0.31
2023-03-12T05:54:14.859Z,0.37
2023-03-12T05:56:46.499Z,0.47
2023-03-12T05:59:14.909Z,0.26
2023-03-12T06:01:44.142Z,0.48
2023-03-12T06:04:12.424Z,0.29
2023-03-12T06:06:45.473Z,0.28
2023-03-12T06:09:14.877Z,0.42
2023-03-12T06:11:44.261Z,0.57
2023-03-12T06:14:13.051Z,0.66
2023-03-12T06:16:44.320Z,0.50
2023-03-12T06:19:14.893Z,0.73
2023-03-12T06:21:44.502Z,0.66
2023-03-12T06:24:12.611Z,0.72
2023-03-12T06:26:41.367Z,0.62
2023-03-12T06:29:15.537Z,0.58
2023-03-12T06:31:44.165Z,0.85
2023-03-12T06:34:12.669Z,0.74
2023-03-12T06:36:43.332Z,0.84
2023-03-12T06:39:12.425Z,0.86
2023-03-12T06:41:41.553Z,0.82
2023-03-12T06:44:13.222Z,0.91
2023-03-12T06:46:44.356Z,0.75
2023-03-12T06:49:14.647Z,0.74
2023-03-12T06:51:42.675Z,0.95
2023-03-12T06:54:10.747Z,0.94
2023-03-12T06:56:39.758Z,0.99
2023-03-12T06:59:08.426Z,0.95
2023-03-12T07:01:38.517Z,1.19
2023-03-12T07:04:06.447Z,1.14
2023-03-12T07:06:34.606Z,1.37
2023-03-12T07:09:02.621Z,1.32
2023-03-12T07:11:32.270Z,1.25
2023-03-12T07:14:01.253Z,1.00
2023-03-12T07:16:30.565Z,1.14
2023-03-12T07:19:05.044Z,1.13
2023-03-12T07:21:33.212Z,0.98
2023-03-12T07:24:06.948Z,0.99
2023-03-12T07:26:35.587Z,1.06
2023-03-12T07:29:04.001Z,1.02
2023-03-12T07:31:32.659Z,0.87
2023-03-12T07:34:03.289Z,0.81
2023-03-12T07:36:31.564Z,0.80
2023-03-12T07:38:59.769Z,0.77
2023-03-12T07:41:40.777Z,0.84
2023-03-12T07:44:11.492Z,0.66
2023-03-12T07:47:24.134Z,0.84
2023-03-12T07:50:11.554Z,0.89
2023-03-12T07:52:41.691Z,0.75
2023-03-12T07:55:11.108Z,0.67
2023-03-12T07:57:39.983Z,0.64
2023-03-12T08:00:10.976Z,0.66
2023-03-12T08:02:40.006Z,0.63
2023-03-12T08:05:11.221Z,0.59
2023-03-12T08:07:41.249Z,0.63
2023-03-12T08:10:10.500Z,0.75
2023-03-12T08:12:42.860Z,0.86
2023-03-12T08:15:13.725Z,0.64
2023-03-12T08:17:41.809Z,0.84
2023-03-12T08:20:15.060Z,0.73
2023-03-12T08:22:43.012Z,0.66
2023-03-12T08:25:11.805Z,0.87
2023-03-12T08:27:39.942Z,0.66
2023-03-12T08:30:09.089Z,0.86
2023-03-12T08:32:44.754Z,0.89
2023-03-12T08:35:14.874Z,0.79
2023-03-12T08:37:44.014Z,0.82
2023-03-12T08:40:15.402Z,0.88
2023-03-12T08:42:45.448Z,0.78
2023-03-12T08:45:14.316Z,1.03
2023-03-12T08:47:45.044Z,1.03
2023-03-12T08:50:16.660Z,1.18
2023-03-12T08:52:45.198Z,1.18
2023-03-12T08:55:13.808Z,1.28
2023-03-12T08:57:43.321Z,1.16
2023-03-12T09:00:16.085Z,1.48
2023-03-12T09:02:45.438Z,1.50
2023-03-12T09:05:15.421Z,1.30
2023-03-12T09:07:43.774Z,1.33
2023-03-12T09:10:17.991Z,1.25
2023-03-12T09:12:46.097Z,1.36
2023-03-12T09:15:14.117Z,1.33
2023-03-12T09:17:42.515Z,1.42
2023-03-12T09:20:14.025Z,1.46
2023-03-12T09:22:44.696Z,1.47
2023-03-12T09:25:13.315Z,1.35
2023-03-12T09:27:43.426Z,1.52
2023-03-12T09:30:15.444Z,1.65
2023-03-12T09:32:46.016Z,1.81
2023-03-12T09:35:15.764Z,1.54
2023-03-12T09:37:48.810Z,1.59
2023-03-12T09:40:19.083Z,1.62
2023-03-12T09:42:50.774Z,1.70
2023-03-12T09:45:24.164Z,1.57
2023-03-12T09:47:54.606Z,1.51
2023-03-12T09:50:27.731Z,1.60
2023-03-12T09:53:00.467Z,1.50
2023-03-12T09:55:34.008Z,1.51
2023-03-12T09:58:03.414Z,1.55
2023-03-12T10:00:34.865Z,1.49
2023-03-12T10:03:29.209Z,1.68
2023-03-12T10:06:10.933Z,1.68
2023-03-12T10:08:53.069Z,1.73
2023-03-12T10:11:33.362Z,1.62
2023-03-12T10:14:23.059Z,1.73
2023-03-12T10:17:00.542Z,1.78
2023-03-12T10:19:51.754Z,1.83
2023-03-12T10:22:34.200Z,1.80
2023-03-12T10:25:14.635Z,1.88
2023-03-12T10:27:43.858Z,1.96
2023-03-12T10:30:19.141Z,1.96
2023-03-12T10:32:53.001Z,1.78
2023-03-12T10:35:23.393Z,1.99
2023-03-12T10:37:55.006Z,1.94
2023-03-12T10:40:28.016Z,1.93
2023-03-12T10:42:56.394Z,1.98
2023-03-12T10:45:32.404Z,1.95
2023-03-12T10:48:03.536Z,2.12
2023-03-12T10:50:37.539Z,2.26
2023-03-12T10:53:22.624Z,2.16
2023-03-12T10:56:05.351Z,2.18
2023-03-12T10:58:38.189Z,2.09
2023-03-12T11:01:08.547Z,2.35
2023-03-12T11:03:36.694Z,2.47
2023-03-12T11:06:10.394Z,2.61
2023-03-12T11:08:39.230Z,2.56
2023-03-12T11:11:08.738Z,2.55
2023-03-12T11:13:38.984Z,2.82
2023-03-12T11:16:31.420Z,2.94
2023-03-12T11:19:03.841Z,3.07
2023-03-12T11:21:36.986Z,3.13
2023-03-12T11:24:09.633Z,3.13
2023-03-12T11:26:49.433Z,3.29
2023-03-12T11:29:30.771Z,3.29
2023-03-12T11:32:04.760Z,3.36
2023-03-12T11:34:35.401Z,3.37
2023-03-12T11:37:11.982Z,3.39
2023-03-12T11:39:53.037Z,3.56
2023-03-12T11:42:36.482Z,3.57
2023-03-12T11:45:14.206Z,3.76
2023-03-12T11:47:58.196Z,4.00
2023-03-12T11:50:37.843Z,3.81
2023-03-12T11:53:27.973Z,3.99
2023-03-12T11:56:16.595Z,4.12
2023-03-12T11:59:14.254Z,4.16
2023-03-12T12:02:12.848Z,4.10
2023-03-12T12:05:05.424Z,4.31
2023-03-12T12:08:20.138Z,4.33
2023-03-12T12:10:59.039Z,4.38
2023-03-12T12:13:37.058Z,4.45
2023-03-12T12:16:24.443Z,4.42
2023-03-12T12:19:08.906Z,4.80
2023-03-12T12:21:52.097Z,4.72
2023-03-12T12:24:31.532Z,5.16
2023-03-12T12:27:07.161Z,5.26
2023-03-12T12:29:50.198Z,5.46
2023-03-12T12:32:33.904Z,5.41
2023-03-12T12:35:17.771Z,5.49
2023-03-12T12:37:52.150Z,5.66
2023-03-12T12:40:31.368Z,5.77
2023-03-12T12:43:16.565Z,5.79
2023-03-12T12:45:47.651Z,5.84
2023-03-12T12:48:21.609Z,6.01
2023-03-12T12:50:53.884Z,5.98
2023-03-12T12:53:28.651Z,6.15
2023-03-12T12:56:07.694Z,6.28
2023-03-12T12:59:04.127Z,6.48
2023-03-12T13:01:32.847Z,6.42
2023-03-12T13:04:05.855Z,6.60
2023-03-12T13:07:01.109Z,6.56
2023-03-12T13:09:41.461Z,6.78
2023-03-12T13:12:16.393Z,6.86
2023-03-12T13:14:51.558Z,6.98
2023-03-12T13:17:33.896Z,7.10
2023-03-12T13:20:16.537Z,7.37
2023-03-12T13:23:01.325Z,7.65
2023-03-12T13:25:52.316Z,7.34
2023-03-12T13:28:36.804Z,7.32
2023-03-12T13:31:35.875Z,7.17
2023-03-12T13:34:34.395Z,7.12
2023-03-12T13:37:04.140Z,7.30
2023-03-12T13:39:38.115Z,7.33
2023-03-12T13:42:30.957Z,7.39
2023-03-12T13:45:23.699Z,7.32
2023-03-12T13:47:57.580Z,7.42
2023-03-12T13:50:26.159Z,7.70
2023-03-12T13:53:03.769Z,8.04
2023-03-12T13:55:34.668Z,8.15
2023-03-12T13:58:09.219Z,8.36
2023-03-12T14:00:45.050Z,8.38
2023-03-12T14:03:17.688Z,8.24
2023-03-12T14:05:53.326Z,7.97
2023-03-12T14:08:46.784Z,7.86
2023-03-12T14:11:29.449Z,8.06
2023-03-12T14:14:16.859Z,8.25
2023-03-12T14:17:18.647Z,8.41
2023-03-12T14:19:50.197Z,8.49
2023-03-12T14:22:22.784Z,8.67
2023-03-12T14:24:55.963Z,8.75
2023-03-12T14:27:30.216Z,8.56
2023-03-12T14:29:59.980Z,8.51
2023-03-12T14:32:32.516Z,8.38
2023-03-12T14:35:14.937Z,8.46
2023-03-12T14:37:48.238Z,8.37
2023-03-12T14:40:27.328Z,8.21
2023-03-12T14:43:00.990Z,8.13
2023-03-12T14:45:30.574Z,8.06
2023-03-12T14:47:59.660Z,7.81
2023-03-12T14:50:31.552Z,7.77
2023-03-12T14:53:13.674Z,7.92
2023-03-12T14:55:41.688Z,7.86
2023-03-12T14:58:17.775Z,7.87
2023-03-12T15:00:51.981Z,8.03
2023-03-12T15:03:20.694Z,8.07
2023-03-12T15:05:50.088Z,8.11
2023-03-12T15:08:18.850Z,8.09
2023-03-12T15:10:51.316Z,7.99
2023-03-12T15:13:22.860Z,7.83
2023-03-12T15:15:53.586Z,7.76
2023-03-12T15:18:25.844Z,7.88
2023-03-12T15:20:54.802Z,7.77
2023-03-12T15:23:25.491Z,7.73
2023-03-12T15:26:17.145Z,7.90
2023-03-12T15:28:56.954Z,7.95
2023-03-12T15:31:26.301Z,7.86
2023-03-12T15:34:02.741Z,7.82
2023-03-12T15:36:32.246Z,7.79
2023-03-12T15:39:05.621Z,7.82
2023-03-12T15:41:43.889Z,7.88
2023-03-12T15:44:21.036Z,7.90
2023-03-12T15:46:51.523Z,7.85
2023-03-12T15:49:24.934Z,7.84
2023-03-12T15:52:04.370Z,7.80
2023-03-12T15:54:32.789Z,7.77
2023-03-12T15:57:23.199Z,7.76
2023-03-12T16:00:21.323Z,7.63
2023-03-12T16:02:52.187Z,7.86
2023-03-12T16:05:21.705Z,7.95
2023-03-12T16:07:50.875Z,8.03
2023-03-12T16:10:23.199Z,8.00
2023-03-12T16:13:01.955Z,7.99
2023-03-12T16:15:40.093Z,7.92
2023-03-12T16:18:14.004Z,7.98
2023-03-12T16:20:56.164Z,7.96
2023-03-12T16:23:25.016Z,7.92
2023-03-12T16:26:06.041Z,7.87
2023-03-12T16:28:36.433Z,7.89
2023-03-12T16:31:12.223Z,7.86
2023-03-12T16:33:40.271Z,7.85
2023-03-12T16:36:15.827Z,7.80
2023-03-12T16:38:44.005Z,7.75
2023-03-12T16:41:14.485Z,7.73
2023-03-12T16:43:46.128Z,7.72
2023-03-12T16:46:19.654Z,7.75
2023-03-12T16:48:51.995Z,7.70
2023-03-12T16:51:20.988Z,7.65
2023-03-12T16:53:58.527Z,7.62
2023-03-12T16:56:30.435Z,7.62
2023-03-12T16:59:03.196Z,7.58
2023-03-12T17:01:32.771Z,7.67
2023-03-12T17:04:00.740Z,7.63
2023-03-12T17:06:28.992Z,7.51
2023-03-12T17:08:56.831Z,7.53
2023-03-12T17:11:27.712Z,7.60
2023-03-12T17:13:58.729Z,7.56
2023-03-12T17:16:27.594Z,7.51
2023-03-12T17:18:57.235Z,7.53
2023-03-12T17:21:25.151Z,7.46
2023-03-12T17:23:52.971Z,7.40
2023-03-12T17:26:20.916Z,7.39
2023-03-12T17:28:49.042Z,7.33
2023-03-12T17:31:18.000Z,7.30
2023-03-12T17:33:45.946Z,7.32
2023-03-12T17:36:17.535Z,7.40
2023-03-12T17:38:45.361Z,7.23
2023-03-12T17:41:25.427Z,7.17
2023-03-12T17:43:58.537Z,7.40
2023-03-12T17:46:26.640Z,7.40
2023-03-12T17:48:57.267Z,7.26
2023-03-12T17:51:26.885Z,7.33
2023-03-12T17:53:55.053Z,7.16
2023-03-12T17:56:22.924Z,7.37
2023-03-12T17:58:51.375Z,7.40
2023-03-12T18:01:19.784Z,7.40
2023-03-12T18:03:48.059Z,7.48
2023-03-12T18:06:17.503Z,7.46
2023-03-12T18:08:47.961Z,7.49
2023-03-12T18:11:15.996Z,7.31
2023-03-12T18:13:44.026Z,7.33
2023-03-12T18:16:12.145Z,7.33
2023-03-12T18:18:40.123Z,7.41
2023-03-12T18:21:08.072Z,7.49
2023-03-12T18:23:37.088Z,7.44
2023-03-12T18:26:06.783Z,7.43
2023-03-12T18:28:34.822Z,7.43
2023-03-12T18:31:02.924Z,7.29
2023-03-12T18:33:32.130Z,7.34
2023-03-12T18:36:00.135Z,7.39
2023-03-12T18:38:28.643Z,7.33
2023-03-12T18:41:03.566Z,7.37
2023-03-12T18:43:33.544Z,7.40
2023-03-12T18:46:01.691Z,7.35
2023-03-12T18:48:29.798Z,7.35
2023-03-12T18:50:57.796Z,7.33
2023-03-12T18:53:25.867Z,7.25
2023-03-12T18:55:54.442Z,7.26
2023-03-12T18:58:23.336Z,7.33
2023-03-12T19:00:53.730Z,7.29
2023-03-12T19:03:22.746Z,7.29
2023-03-12T19:06:01.192Z,7.41
2023-03-12T19:08:29.350Z,7.51
2023-03-12T19:10:57.302Z,7.49
2023-03-12T19:13:28.598Z,7.45
2023-03-12T19:16:02.543Z,7.51
2023-03-12T19:18:32.157Z,7.40
2023-03-12T19:21:00.203Z,7.43
2023-03-12T19:23:29.139Z,7.48
2023-03-12T19:25:57.232Z,7.36
2023-03-12T19:28:25.282Z,7.36
2023-03-12T19:31:01.795Z,7.28
2023-03-12T19:33:29.806Z,7.30
2023-03-12T19:35:58.621Z,7.30
2023-03-12T19:38:27.577Z,7.33
2023-03-12T19:40:57.160Z,7.43
2023-03-12T19:43:26.584Z,7.46
2023-03-12T19:45:55.626Z,7.46
2023-03-12T19:48:26.249Z,7.60
2023-03-12T19:50:56.026Z,7.58
2023-03-12T19:53:24.785Z,7.62
2023-03-12T19:55:53.299Z,7.57
2023-03-12T19:58:21.330Z,7.54
2023-03-12T20:00:50.507Z,7.67
2023-03-12T20:03:20.741Z,7.63
2023-03-12T20:05:50.974Z,7.83
2023-03-12T20:08:20.996Z,7.87
2023-03-12T20:10:49.648Z,7.72
2023-03-12T20:13:18.617Z,7.81
2023-03-12T20:15:48.056Z,7.82
2023-03-12T20:18:16.480Z,7.90
2023-03-12T20:20:44.571Z,7.93
2023-03-12T20:23:21.056Z,8.00
2023-03-12T20:25:52.282Z,8.02
2023-03-12T20:28:35.593Z,8.03
2023-03-12T20:31:22.536Z,8.04
2023-03-12T20:33:51.729Z,8.01
2023-03-12T20:36:19.999Z,8.11
2023-03-12T20:38:54.005Z,8.16
2023-03-12T20:41:22.090Z,8.17
2023-03-12T20:43:56.386Z,8.12
2023-03-12T20:46:26.689Z,8.25
2023-03-12T20:48:56.692Z,8.14
2023-03-12T20:51:24.862Z,8.16
2023-03-12T20:53:54.191Z,8.16
2023-03-12T20:56:22.376Z,8.18
2023-03-12T20:58:53.355Z,8.25
2023-03-12T21:01:22.711Z,8.33
2023-03-12T21:03:50.582Z,8.30
2023-03-12T21:06:18.923Z,8.36
2023-03-12T21:08:47.018Z,8.32
2023-03-12T21:11:16.468Z,8.25
2023-03-12T21:13:44.394Z,8.30
2023-03-12T21:16:13.002Z,8.33
2023-03-12T21:18:41.205Z,8.26
2023-03-12T21:21:09.840Z,8.38
2023-03-12T21:23:38.815Z,8.23
2023-03-12T21:26:09.814Z,8.21
2023-03-12T21:28:39.268Z,8.30
2023-03-12T21:31:08.753Z,8.28
2023-03-12T21:33:37.053Z,8.23
2023-03-12T21:36:07.467Z,8.25
2023-03-12T21:38:36.227Z,8.30
2023-03-12T21:41:06.620Z,8.27
2023-03-12T21:43:35.602Z,8.20
2023-03-12T21:46:09.825Z,8.28
2023-03-12T21:48:39.469Z,8.37
2023-03-12T21:51:09.559Z,8.43
2023-03-12T21:53:42.158Z,8.48
2023-03-12T21:56:10.673Z,8.48
2023-03-12T21:58:38.677Z,8.44
2023-03-12T22:01:11.050Z,8.44
2023-03-12T22:03:42.672Z,8.42
2023-03-12T22:06:12.158Z,8.29
2023-03-12T22:08:41.037Z,8.41
2023-03-12T22:11:09.536Z,8.33
2023-03-12T22:13:38.596Z,8.41
2023-03-12T22:16:11.143Z,8.49
2023-03-12T22:18:44.095Z,8.47
2023-03-12T22:21:15.803Z,8.48
2023-03-12T22:23:44.330Z,8.49
2023-03-12T22:26:12.208Z,8.47
2023-03-12T22:28:42.620Z,8.56
2023-03-12T22:31:12.003Z,8.52
2023-03-12T22:33:39.942Z,8.61
2023-03-12T22:36:11.376Z,8.61
2023-03-12T22:38:39.850Z,8.62
2023-03-12T22:41:17.274Z,8.62
2023-03-12T22:43:46.589Z,8.61
2023-03-12T22:46:16.984Z,8.56
2023-03-12T22:48:45.995Z,8.57
2023-03-12T22:51:15.313Z,8.61
2023-03-12T22:53:43.294Z,8.61
2023-03-12T22:56:16.244Z,8.64
2023-03-12T22:58:44.571Z,8.61
2023-03-12T23:01:14.584Z,8.59
2023-03-12T23:03:45.614Z,8.61
2023-03-12T23:06:15.819Z,8.70
2023-03-12T23:08:46.210Z,8.70
2023-03-12T23:11:17.630Z,8.69
2023-03-12T23:13:48.321Z,8.72
2023-03-12T23:16:19.470Z,8.69
2023-03-12T23:18:50.915Z,8.70
2023-03-12T23:21:22.259Z,8.67
2023-03-12T23:23:51.393Z,8.63
2023-03-12T23:26:21.159Z,8.69
2023-03-12T23:28:51.124Z,8.69
2023-03-12T23:31:22.530Z,8.76
2023-03-12T23:33:52.129Z,8.82
2023-03-12T23:36:21.971Z,8.80
2023-03-12T23:38:51.350Z,8.83
2023-03-12T23:41:23.800Z,8.85
2023-03-12T23:43:52.556Z,8.84
2023-03-12T23:46:21.021Z,8.81
2023-03-12T23:48:49.636Z,8.70
2023-03-12T23:51:20.966Z,8.63
2023-03-12T23:53:51.461Z,8.64
2023-03-12T23:56:21.309Z,8.52
2023-03-12T23:58:50.828Z,8.50
